Date,TemperatureHighF,TemperatureAvgF,TemperatureLowF,DewpointHighF,DewpointAvgF,DewpointLowF,HumidityHigh,HumidityAvg,HumidityLow,PressureMaxIn,PressureMinIn,WindSpeedMaxMPH,WindSpeedAvgMPH,GustSpeedMaxMPH,PrecipitationSumIn
2013-1-1,79.9,72.7,65.0,63.2,59.4,56.7,87,64,50,30.11,29.97,8,2,16,0.00
2013-1-2,83.4,72.0,62.0,69.7,63.6,59.2,97,78,45,30.01,29.91,4,0,11,0.00
2013-1-3,83.8,73.9,68.3,73.5,64.9,-99.9,100,80,53,30.05,29.94,5,1,8,0.00
2013-1-4,73.7,27.7,66.8,73.7,-43.6,-99.9,100,33,92,30.14,30.02,6,-561,8,0.00
2013-1-5,77.4,65.1,68.1,74.7,44.7,-99.9,100,78,75,30.17,30.07,6,-92,8,0.00
2013-1-6,82.2,74.6,68.3,77.7,55.0,-99.9,100,67,4,30.10,29.98,6,2,13,0.00
2013-1-7,78.5,70.9,70.1,73.5,61.9,-99.9,100,83,5,30.08,29.99,6,-24,9,0.00
2013-1-8,81.8,76.4,71.3,78.6,61.3,14.4,100,69,8,30.11,29.99,7,2,13,0.00
2013-1-9,82.6,77.7,75.1,69.7,52.9,8.6,81,48,6,30.19,30.07,9,4,14,0.00
2013-1-10,81.1,76.9,73.7,81.1,3.3,-99.9,100,25,1,30.21,30.10,9,4,17,0.00
2013-1-11,77.0,73.6,71.6,63.4,54.4,31.4,72,53,19,30.17,30.09,5,1,10,0.00
2013-1-12,81.1,74.8,67.1,73.3,24.7,-99.9,100,43,1,30.10,30.00,7,2,13,0.00
2013-1-13,81.4,74.7,67.1,72.1,10.9,-99.9,100,31,1,30.05,29.98,9,2,14,0.00
2013-1-14,81.2,72.2,65.2,68.1,9.5,-99.9,100,44,1,30.08,30.03,7,2,13,0.00
2013-1-15,80.9,72.8,65.5,74.6,38.3,-99.9,100,56,1,30.05,29.96,6,2,11,0.00
2013-1-16,82.0,73.2,63.9,75.6,37.6,-99.9,100,57,1,30.02,29.93,6,2,11,0.00
2013-1-17,70.3,69.9,69.6,70.3,69.9,69.6,100,100,100,29.97,29.95,0,0,0,0.00
2013-1-19,73.5,69.8,64.3,73.5,68.9,64.3,100,97,79,30.14,30.02,5,1,7,0.00
2013-1-20,81.2,60.2,69.8,76.7,10.1,-99.9,100,46,1,30.07,29.93,4,-168,7,0.00
2013-1-21,81.2,65.1,66.8,72.7,36.5,-99.9,100,59,8,29.99,29.88,7,-112,11,0.00
2013-1-22,76.1,68.0,62.7,68.1,13.5,-99.9,100,47,1,30.13,29.93,9,4,16,0.00
2013-1-23,75.4,66.5,59.9,75.4,18.4,-99.9,100,42,1,30.22,30.11,6,2,10,0.00
2013-1-24,76.1,65.0,58.0,76.1,28.4,-99.9,100,63,1,30.21,30.11,8,2,13,0.00
2013-1-25,78.5,65.1,56.3,78.5,23.5,-99.9,100,58,1,30.21,30.10,6,-9,11,0.00
2013-1-26,78.8,67.5,59.5,78.8,0.9,-99.9,100,50,3,30.17,30.08,6,1,10,0.00
2013-1-27,79.2,57.7,63.2,78.6,-48.2,-99.9,100,10,1,30.20,30.11,5,-190,13,0.00
2013-1-28,80.7,65.4,70.1,51.8,-30.7,-99.9,47,15,1,30.23,30.14,8,-64,16,0.00
2013-1-29,79.8,74.4,67.8,72.0,41.1,-99.9,100,39,1,30.15,30.04,9,3,16,0.00
2013-1-30,80.7,74.8,70.9,69.3,4.3,-99.9,89,31,1,30.04,29.89,10,4,18,0.00
2013-1-31,74.6,62.3,58.4,71.6,11.2,-99.9,100,44,1,30.10,29.87,16,-40,24,0.00
2013-2-1,74.0,61.6,51.7,74.0,-39.9,-99.9,100,15,1,30.19,30.08,8,4,14,0.00
2013-2-2,75.6,60.1,54.1,75.6,-6.7,-99.9,100,47,1,30.18,30.03,5,-37,9,0.14
2013-2-3,72.8,63.0,54.7,72.8,21.7,-99.9,100,65,1,30.09,29.99,8,2,14,0.00
2013-2-4,76.8,62.2,50.1,76.8,28.4,-99.9,100,55,1,30.07,29.94,5,1,9,0.00
2013-2-5,80.3,59.8,55.7,80.3,4.9,-99.9,100,52,1,30.00,29.92,6,-96,9,0.00
2013-2-6,81.1,67.5,64.5,66.2,-1.7,-99.9,100,40,1,30.02,29.94,5,-49,10,0.00
2013-2-7,81.2,36.8,63.5,65.8,-46.1,-99.9,100,27,36,29.99,29.86,12,-418,12,0.00
2013-2-8,-200.0,0.0,200.0,-99.9,-99.9,-99.9,0,0,100,29.95,29.83,0,-999,0,0.00
2013-2-9,-200.0,0.0,200.0,-99.9,-99.9,-99.9,0,0,100,29.99,29.93,0,-999,0,0.00
2013-2-14,71.6,21.3,66.3,71.0,-48.0,-99.9,100,30,98,29.93,29.85,20,-574,29,0.00
2013-2-15,73.3,34.9,67.8,73.3,-21.2,-99.9,100,50,56,29.94,29.86,8,-367,29,0.00
2013-2-16,73.0,58.5,54.1,72.8,14.5,-99.9,100,52,1,30.00,29.80,16,-100,29,0.00
2013-2-17,57.5,49.9,44.6,57.5,13.2,-99.9,100,63,1,30.23,29.99,16,-18,29,0.00
2013-2-18,69.9,59.2,46.5,69.8,-44.2,-99.9,100,20,1,30.23,30.12,7,4,29,0.00
2013-2-19,78.1,70.5,58.0,69.3,2.8,-99.9,100,28,1,30.12,30.00,8,3,29,0.00
2013-2-20,81.1,72.1,67.3,81.1,39.6,-99.9,100,68,4,30.03,29.93,6,1,29,0.00
2013-2-21,72.0,64.7,67.6,69.9,58.6,-99.9,100,93,64,29.99,29.91,2,-55,29,0.00
2013-2-22,83.0,50.4,72.7,69.1,-7.8,-99.9,81,27,3,30.01,29.93,16,-335,29,0.00
2013-2-23,76.7,74.3,73.5,71.1,67.6,65.1,84,80,74,29.96,29.90,8,3,29,0.00
2013-2-25,79.0,3.9,79.0,35.7,-93.2,-99.9,21,1,21,29.77,29.74,6,-837,6,0.00
2013-2-26,80.1,7.3,75.6,36.6,-92.1,-99.9,22,1,21,29.81,29.72,12,-849,12,0.00
2013-2-27,77.6,8.6,70.8,73.2,-86.8,-99.9,100,7,73,29.88,29.78,7,-837,11,0.00
2013-2-28,-200.0,0.0,200.0,-99.9,-99.9,-99.9,44,0,44,29.93,29.82,8,-992,8,0.00
2013-3-1,-200.0,0.0,200.0,-99.9,-99.9,-99.9,0,0,100,29.91,29.82,0,-992,2,0.00
2013-3-2,-200.0,0.0,200.0,-99.9,-99.9,-99.9,0,0,100,29.96,29.87,12,-990,12,0.00
2013-3-3,-200.0,0.0,200.0,-99.9,-99.9,-99.9,0,0,100,29.97,29.88,0,-999,2,0.00
2013-3-12,75.5,71.8,69.4,66.2,65.2,64.8,87,80,70,30.00,29.94,6,2,8,0.00
2013-3-13,76.3,65.8,56.8,65.4,52.8,40.9,92,66,31,30.12,29.98,9,4,17,0.00
2013-3-14,64.5,58.6,55.5,53.9,48.3,38.2,83,70,38,30.20,30.11,7,2,11,0.00
2013-3-15,74.7,62.7,51.9,53.1,48.2,44.1,81,61,37,30.25,30.14,6,2,12,0.00
2013-3-16,76.7,64.8,51.5,56.4,52.4,50.0,97,68,42,30.19,30.08,6,2,13,0.00
2013-3-17,78.0,67.6,55.4,60.9,57.1,53.9,96,72,48,30.15,30.02,6,2,11,0.00
2013-3-18,80.4,71.3,61.6,69.6,64.6,59.3,94,80,61,30.08,29.96,7,2,15,0.03
2013-3-19,79.5,72.7,67.4,70.1,67.5,64.7,97,85,61,30.01,29.81,7,2,13,0.04
2013-3-20,87.7,73.3,62.7,69.0,63.2,56.3,99,74,40,29.98,29.80,12,2,18,0.00
2013-3-21,66.2,64.6,63.2,61.7,61.4,61.0,94,89,84,29.86,29.83,5,2,8,0.00
2013-3-22,78.4,72.2,55.2,69.4,61.7,53.4,95,71,52,30.00,29.91,7,3,15,0.00
2013-3-23,91.0,79.4,70.7,74.5,70.2,66.6,98,76,46,29.98,29.80,5,2,13,0.00
2013-3-24,91.2,80.8,74.2,73.9,71.4,68.2,95,75,50,29.89,29.69,8,3,21,0.00
2013-3-25,77.3,73.6,63.1,73.1,60.3,39.4,95,67,37,30.00,29.74,11,5,19,0.04
2013-3-26,65.6,59.7,50.6,45.6,38.1,30.5,65,45,28,30.21,29.98,12,8,22,0.00
2013-3-27,69.2,56.0,45.4,46.7,39.7,35.2,77,56,34,30.25,30.17,10,5,19,0.00
2013-3-28,74.3,60.9,50.1,49.0,44.1,37.6,82,56,29,30.26,30.16,7,3,14,0.00
2013-3-29,76.4,65.4,53.3,52.8,48.7,42.4,75,56,37,30.28,30.20,6,2,14,0.00
2013-3-30,77.0,66.9,54.3,56.2,51.4,45.1,92,61,34,30.26,30.16,5,2,12,0.00
2013-3-31,80.8,70.2,58.2,65.6,60.6,53.4,95,73,51,30.19,30.04,7,2,16,0.00
2013-4-1,87.2,76.1,66.0,71.1,65.9,60.3,95,73,42,30.05,29.94,9,2,16,0.00
2013-4-2,86.1,73.4,65.5,68.0,65.0,61.3,98,77,44,30.08,29.99,5,2,12,0.00
2013-4-3,84.5,76.0,66.4,69.9,67.1,64.5,96,75,55,30.06,29.98,7,3,16,0.00
2013-4-4,87.1,75.8,67.3,72.2,69.2,66.1,98,81,54,30.04,29.90,16,3,30,1.59
2013-4-5,72.4,67.8,65.5,70.5,65.8,63.8,98,94,84,29.98,29.82,10,2,18,0.89
2013-4-6,79.2,68.1,58.7,66.1,60.7,56.7,95,78,60,30.08,29.92,8,4,16,0.02
2013-4-7,79.6,72.8,68.2,64.6,62.7,60.8,82,71,54,30.13,30.01,6,3,14,0.00
2013-4-8,83.6,72.9,59.9,64.7,60.6,53.6,97,68,36,30.12,30.04,5,2,12,0.00
2013-4-9,81.4,74.3,64.5,68.1,65.3,63.0,97,75,57,30.14,30.04,7,3,16,0.00
2013-4-10,84.7,77.8,71.0,72.0,69.5,65.8,85,76,63,30.10,29.99,7,4,15,0.00
2013-4-11,76.7,76.2,75.6,71.6,70.9,70.5,86,84,82,30.01,29.95,6,4,14,0.00
2013-4-12,88.4,81.0,73.1,77.5,74.2,70.2,92,80,64,29.94,29.85,7,3,24,0.80
2013-4-13,87.1,77.4,72.4,75.5,72.7,69.9,96,86,58,29.96,29.87,6,2,12,0.12
2013-4-14,88.7,80.0,71.9,75.7,72.9,69.9,98,80,55,29.96,29.88,7,3,16,0.00
2013-4-15,92.5,78.2,70.5,76.2,72.8,68.4,97,85,50,30.05,29.92,7,2,12,0.23
2013-4-16,87.8,78.8,71.0,77.3,72.4,69.9,99,82,61,30.11,30.01,6,2,13,0.01
2013-4-17,85.9,78.7,72.9,71.5,69.3,67.3,90,74,56,30.10,30.01,6,2,14,0.00
2013-4-18,86.9,80.0,73.0,73.2,70.3,67.4,88,73,54,30.05,29.97,7,3,14,0.00
2013-4-19,88.9,81.8,77.2,74.2,71.7,68.4,87,72,53,30.04,29.95,9,4,17,0.00
2013-4-20,92.4,79.2,73.3,76.7,72.6,65.0,97,82,44,30.07,29.92,15,2,20,0.25
2013-4-21,86.5,77.5,71.6,73.8,71.4,66.1,96,83,54,30.08,29.97,9,3,18,0.01
2013-4-22,88.3,74.0,68.3,73.0,69.4,65.8,98,87,53,30.04,29.91,6,2,15,2.15
2013-4-23,84.6,75.3,67.5,70.9,66.1,61.0,98,75,53,30.08,29.94,6,3,15,0.00
2013-4-24,73.3,72.6,71.6,62.2,61.3,60.5,70,68,66,30.08,30.02,3,1,10,0.00
2013-4-25,75.7,73.5,71.7,63.3,61.8,60.6,73,67,61,30.19,30.14,3,1,10,0.00
2013-4-26,84.3,75.3,64.2,66.5,63.5,60.2,92,68,51,30.21,30.10,6,2,15,0.00
2013-4-27,83.3,77.0,70.0,67.7,63.7,57.8,77,64,44,30.20,30.07,6,3,15,0.00
2013-4-28,84.9,77.5,72.5,65.6,63.2,60.1,75,62,47,30.11,29.98,6,4,17,0.00
2013-4-29,84.6,77.5,73.6,73.4,68.3,62.8,89,74,59,30.02,29.92,7,3,16,0.15
2013-4-30,77.1,74.4,70.6,71.2,70.2,68.5,94,87,80,29.97,29.92,3,1,7,0.23
2013-5-1,87.2,74.9,69.4,74.0,70.5,68.1,98,87,60,29.99,29.90,6,1,12,0.26
2013-5-2,80.6,72.4,68.8,74.4,69.8,67.4,98,92,77,29.93,29.77,9,2,19,2.21
2013-5-3,88.2,74.7,67.5,72.2,69.0,65.9,98,84,50,29.81,29.67,7,2,14,0.25
2013-5-4,85.8,76.6,68.3,70.7,67.9,64.4,98,77,50,29.80,29.68,11,4,20,0.01
2013-5-5,72.2,69.9,68.6,67.8,66.6,65.9,94,89,81,29.85,29.75,10,5,15,0.00
2013-5-8,88.5,78.5,61.3,67.2,60.3,54.0,97,57,33,30.13,30.04,5,2,9,0.00
2013-5-9,88.0,77.5,65.9,73.1,67.0,58.1,88,71,47,30.13,30.05,5,2,11,0.00
2013-5-10,90.5,81.1,71.7,73.9,71.5,67.5,93,74,49,30.12,30.01,7,2,14,0.00
2013-5-11,90.0,79.1,70.4,75.5,72.6,67.2,97,82,59,30.06,29.97,8,2,18,1.07
2013-5-12,94.0,79.0,71.4,75.3,71.9,67.9,98,81,45,30.06,29.94,6,1,14,0.29
2013-5-13,86.4,77.9,70.6,73.2,70.0,64.2,98,78,55,30.07,29.98,8,2,14,0.00
2013-5-14,83.0,76.0,68.7,67.2,61.5,55.5,87,63,43,30.16,30.05,6,2,15,0.00
2013-5-15,84.3,74.8,64.5,64.0,60.5,54.8,88,63,39,30.18,30.08,6,2,14,0.00
2013-5-16,85.0,75.9,63.5,65.1,61.5,57.4,88,62,44,30.10,30.03,5,2,13,0.00
2013-5-17,89.9,78.8,68.3,72.3,68.6,63.0,91,72,43,30.07,30.00,5,2,12,0.00
2013-5-18,86.0,79.6,72.2,74.7,71.5,69.6,95,77,63,30.09,30.01,7,2,15,0.02
2013-5-19,88.4,79.8,71.2,71.6,69.4,65.8,94,72,50,30.09,29.98,5,2,13,0.00
2013-5-20,80.7,76.1,69.2,74.5,71.8,67.7,97,87,74,30.06,29.95,6,1,12,3.08
2013-5-21,86.8,76.8,70.3,74.7,70.9,66.7,97,83,52,30.03,29.91,7,2,15,0.11
2013-5-22,90.6,77.0,72.8,75.6,72.4,69.1,96,87,51,29.95,29.88,5,1,17,0.32
2013-5-23,91.6,81.1,72.7,76.3,72.6,66.2,98,78,44,29.99,29.90,7,2,14,0.00
2013-5-24,94.3,82.1,74.4,76.4,73.1,64.2,96,76,44,30.05,29.93,7,2,15,0.00
2013-5-25,86.6,79.9,74.1,75.2,69.1,63.7,93,72,48,30.15,30.02,6,2,15,0.00
2013-5-26,86.5,78.7,70.0,68.6,64.9,61.8,83,64,48,30.16,30.09,7,3,15,0.00
2013-5-27,84.8,79.5,74.6,74.0,69.9,63.9,88,73,64,30.14,30.05,8,4,17,0.00
2013-5-28,83.7,78.7,75.2,74.0,72.2,70.2,91,81,67,30.09,30.02,8,5,19,0.12
2013-5-29,81.4,76.0,71.8,74.6,71.7,67.0,96,87,69,30.08,30.01,10,4,22,1.45
2013-5-30,84.8,79.0,72.9,75.0,72.2,70.1,94,80,69,30.05,29.98,10,6,23,0.12
2013-5-31,86.3,79.3,74.6,76.8,73.5,-99.9,94,83,67,30.04,29.98,8,4,16,0.22
2013-6-1,83.6,76.7,73.5,77.9,74.6,72.4,97,93,78,30.02,29.94,6,1,10,1.70
2013-6-2,92.2,79.2,71.9,77.6,73.9,71.2,99,85,54,29.99,29.90,5,1,10,0.74
2013-6-3,90.6,80.2,72.6,77.2,73.8,71.3,98,82,54,30.02,29.90,4,1,9,0.00
2013-6-4,88.2,79.3,72.9,78.2,74.3,71.3,97,86,58,30.04,29.94,4,1,10,0.10
2013-6-5,85.0,81.1,77.9,77.3,76.1,74.5,92,85,75,30.01,29.88,5,2,11,0.02
2013-6-6,90.1,80.8,75.5,80.1,75.9,71.8,95,85,67,29.90,29.76,10,4,21,0.98
2013-6-7,90.9,77.8,73.8,78.4,74.2,72.0,97,89,63,30.00,29.83,6,2,15,3.34
2013-6-8,91.0,81.1,74.0,78.4,75.5,72.8,98,84,62,30.09,29.95,6,2,16,0.00
2013-6-9,88.8,83.2,79.5,76.2,74.8,72.5,86,76,63,30.10,30.02,7,4,16,0.00
2013-6-10,89.9,84.0,79.7,77.3,75.8,74.5,87,77,62,30.08,29.99,6,3,16,0.00
2013-6-11,91.8,83.5,78.8,78.9,76.2,71.1,92,80,53,30.08,29.99,5,2,13,0.01
2013-6-12,90.8,80.0,76.0,78.2,75.5,73.2,96,87,58,30.07,30.00,6,1,11,0.07
2013-6-13,92.8,80.3,74.0,78.1,73.7,67.2,98,82,49,30.05,29.93,6,1,13,0.03
2013-6-14,92.1,80.5,73.3,76.6,73.6,69.5,96,81,55,29.97,29.87,11,2,23,0.53
2013-6-15,92.3,82.3,74.4,77.0,74.6,70.4,97,79,53,30.04,29.92,4,1,10,0.00
2013-6-16,92.5,83.5,74.4,77.7,75.0,71.9,97,77,52,30.08,30.00,6,2,13,0.00
2013-6-17,93.9,85.1,76.2,78.0,75.0,72.4,94,73,52,30.07,29.99,6,2,12,0.00
2013-6-18,92.6,85.0,77.2,77.1,75.3,73.1,94,74,54,30.06,29.97,6,2,13,0.00
2013-6-19,93.8,85.1,78.2,78.5,75.2,72.5,93,74,52,30.03,29.96,6,2,13,0.00
2013-6-20,94.5,81.8,73.4,77.7,72.8,69.6,95,76,48,30.08,30.01,8,2,16,1.02
2013-6-21,93.2,84.2,76.4,76.3,73.0,68.0,93,71,46,30.10,30.01,5,2,12,0.00
2013-6-22,89.1,81.1,76.3,75.1,73.4,70.6,89,78,56,30.08,30.02,4,1,9,0.00
2013-6-23,90.9,86.5,81.8,77.5,73.6,70.5,79,66,54,30.11,30.05,7,4,14,0.40
2013-6-24,89.6,83.7,77.7,77.6,73.9,68.9,88,73,58,30.15,30.06,7,3,17,0.05
2013-6-25,91.2,83.2,77.5,78.6,74.8,72.3,91,76,58,30.11,30.02,7,3,15,0.25
2013-6-26,92.1,84.2,77.2,77.9,74.8,71.0,91,74,53,30.06,29.99,6,3,15,0.03
2013-6-27,90.0,82.8,77.4,77.7,74.8,71.0,92,77,62,30.05,29.94,4,1,10,0.01
2013-6-28,94.6,82.6,75.0,78.0,74.7,70.4,97,79,49,29.99,29.84,6,1,10,0.25
2013-6-29,94.8,81.5,74.9,78.0,75.1,71.4,97,82,47,29.91,29.82,7,1,15,0.25
2013-6-30,92.1,82.2,76.7,78.0,74.8,72.4,92,79,56,29.93,29.84,8,2,18,0.48
2013-7-1,91.3,81.5,75.7,78.1,75.3,71.8,94,82,61,30.02,29.90,8,2,18,0.20
2013-7-2,89.3,82.2,76.4,79.4,76.0,71.2,95,82,63,30.10,29.96,7,2,16,0.01
2013-7-3,89.3,82.8,77.3,78.1,75.3,71.2,92,79,64,30.12,30.02,9,4,19,0.17
2013-7-4,90.5,83.2,74.8,76.5,74.7,68.9,97,77,58,30.15,30.05,9,4,19,0.13
2013-7-5,87.8,81.4,75.3,78.9,75.5,73.1,97,83,68,30.12,30.03,8,3,19,0.34
2013-7-6,89.9,83.0,78.3,76.7,74.7,71.3,89,77,55,30.10,30.01,8,4,15,0.06
2013-7-7,89.0,83.5,77.0,79.0,74.7,72.5,93,76,59,30.08,30.00,7,3,18,0.05
2013-7-8,91.0,83.9,77.2,74.7,73.1,71.2,85,71,56,30.13,30.06,6,2,16,0.01
2013-7-9,85.9,81.6,78.3,72.9,72.1,70.8,82,73,62,30.07,30.03,4,2,11,0.00
2013-7-10,86.4,78.5,73.5,76.5,74.0,71.7,96,87,67,30.07,29.98,5,1,11,0.68
2013-7-11,93.0,81.7,74.6,78.9,74.4,71.5,98,80,54,30.03,29.92,7,2,15,0.00
2013-7-12,93.1,81.6,75.4,78.3,74.0,69.2,96,79,47,29.96,29.88,6,1,11,0.24
2013-7-13,88.8,76.6,72.5,76.1,72.7,70.5,97,88,62,30.01,29.90,6,1,10,1.44
2013-7-14,91.5,78.8,72.1,75.6,73.0,70.6,97,84,54,30.08,29.97,9,2,15,0.69
2013-7-15,91.6,80.8,72.9,76.9,72.9,70.5,97,79,51,30.08,29.99,6,2,13,0.04
2013-7-16,85.2,78.3,73.9,75.1,72.3,70.3,94,82,62,30.13,30.03,9,3,21,0.28
2013-7-17,79.0,74.6,71.3,75.9,72.7,68.6,97,94,80,30.14,30.03,8,1,19,3.77
2013-7-18,84.9,76.2,71.8,79.3,73.5,70.4,98,92,71,30.12,30.04,11,1,18,1.32
2013-7-19,90.4,81.4,73.2,78.8,75.6,72.3,99,84,60,30.11,30.03,6,2,14,0.00
2013-7-20,89.4,81.9,75.4,79.1,76.4,71.9,95,84,58,30.10,30.02,6,2,13,0.17
2013-7-21,92.3,82.0,75.3,78.8,76.3,72.5,97,84,61,30.13,30.03,6,1,11,0.00
2013-7-22,93.3,84.7,77.7,78.0,75.4,71.2,95,76,52,30.13,30.05,5,2,13,0.00
2013-7-23,95.3,84.1,75.9,78.4,75.0,68.9,95,76,44,30.10,29.95,6,1,12,0.35
2013-7-24,94.2,84.7,77.4,78.2,75.0,69.1,96,74,46,30.01,29.90,6,2,12,0.01
2013-7-25,93.9,84.7,76.1,77.4,74.5,72.4,91,73,53,30.01,29.90,8,2,15,0.00
2013-7-26,94.9,82.8,75.5,77.6,75.8,73.3,96,81,52,30.02,29.91,12,2,20,1.87
2013-7-27,88.9,80.0,75.3,79.6,76.1,73.5,98,88,64,29.99,29.92,7,1,11,0.39
2013-7-28,90.4,82.0,76.6,78.3,76.1,72.6,96,83,62,30.06,29.94,7,1,11,0.03
2013-7-29,92.6,83.1,75.7,79.0,76.2,73.7,97,81,55,30.12,30.00,6,2,13,0.00
2013-7-30,92.7,85.2,76.4,79.9,76.8,73.9,94,77,58,30.15,30.06,6,2,12,0.05
2013-7-31,91.7,85.3,79.6,78.4,75.7,72.1,89,74,55,30.09,29.99,6,3,17,0.00
2013-8-1,91.5,84.3,78.8,76.0,74.3,69.8,86,73,53,30.04,29.92,6,3,15,0.00
2013-8-2,93.0,82.2,76.5,77.9,74.1,70.3,92,78,52,30.04,29.90,5,1,10,0.02
2013-8-3,90.2,78.9,72.2,78.8,74.8,70.1,97,88,61,30.12,30.01,6,1,16,0.34
2013-8-4,96.2,83.0,75.8,79.2,75.3,69.0,96,80,42,30.10,29.97,10,1,19,0.05
2013-8-5,91.8,82.0,77.2,80.2,75.9,72.0,95,83,57,30.03,29.93,10,2,18,0.02
2013-8-6,93.8,83.1,76.2,79.3,75.7,71.7,96,80,54,29.98,29.87,10,1,15,0.00
2013-8-7,92.5,83.7,76.0,79.1,75.5,73.7,97,78,56,29.95,29.89,6,2,13,0.01
2013-8-13,93.8,87.9,78.4,79.8,74.7,70.5,93,66,50,30.01,29.94,6,3,12,0.00
2013-8-14,93.8,84.9,76.1,77.8,74.8,70.1,96,73,50,30.01,29.91,6,2,15,0.00
2013-8-15,88.0,81.5,76.0,78.2,76.1,73.2,95,84,70,30.05,29.95,4,1,11,0.08
2013-8-16,88.0,81.7,78.4,80.0,77.2,76.0,95,87,70,30.04,29.97,4,1,8,0.00
2013-8-17,92.9,86.5,81.8,78.9,77.3,73.8,87,75,54,30.06,29.98,7,3,17,0.00
2013-8-18,91.4,85.3,81.5,80.0,76.9,74.4,86,76,62,30.06,29.97,9,3,17,0.16
2013-8-19,92.2,84.6,76.8,78.4,76.4,73.5,96,78,55,30.05,29.94,8,3,18,0.11
2013-8-20,91.8,85.3,78.5,77.7,75.6,71.5,91,74,52,30.05,29.97,7,3,18,0.08
2013-8-21,90.8,83.4,78.4,80.5,77.2,74.6,94,82,64,30.06,29.97,7,3,17,0.13
2013-8-22,91.4,84.1,75.6,79.2,76.7,72.6,96,79,62,30.06,29.93,6,2,14,0.04
2013-8-23,92.8,83.9,76.6,78.9,75.9,72.0,94,78,56,30.00,29.92,7,2,12,0.00
2013-8-24,93.6,83.8,76.5,78.8,75.6,71.7,96,78,55,30.10,29.95,7,2,15,0.18
2013-8-25,88.1,79.8,76.6,77.8,73.6,-99.9,96,84,66,30.14,30.01,9,-8,12,0.08
2013-8-26,91.3,82.1,76.3,77.9,74.4,71.3,93,79,55,30.10,29.99,8,1,12,0.00
2013-8-27,90.5,79.8,74.1,76.9,73.4,70.8,94,82,53,30.03,29.95,5,1,10,0.02
2013-8-28,89.4,80.1,74.7,77.1,74.0,66.6,95,83,60,30.03,29.93,7,2,16,0.39
2013-8-29,93.0,82.7,73.9,77.5,74.3,71.2,95,78,50,30.01,29.92,5,1,10,0.00
2013-8-31,92.3,79.7,74.6,78.8,74.3,72.0,97,85,53,29.97,29.91,6,1,9,0.23
2013-9-1,89.7,79.3,73.2,79.9,75.6,71.5,99,89,63,29.99,29.92,5,0,12,0.05
2013-9-2,94.8,78.4,72.4,79.6,75.0,68.5,99,90,52,30.08,29.92,12,1,25,2.52
2013-9-3,89.9,80.1,72.1,80.2,75.5,71.5,99,87,66,30.01,29.91,4,1,11,0.06
2013-9-4,88.7,81.7,76.8,79.4,77.1,74.9,97,86,69,30.05,29.93,4,1,9,0.06
2013-9-5,92.0,83.4,77.7,80.0,76.8,74.6,95,81,59,30.05,29.97,5,1,11,0.01
2013-9-6,94.3,84.5,77.1,79.9,76.2,71.6,97,78,48,30.02,29.90,5,2,12,0.00
2013-9-7,89.3,79.2,74.4,77.5,74.8,71.2,94,87,65,29.97,29.89,8,1,12,0.03
2013-9-8,92.8,78.6,72.6,77.0,74.2,71.2,98,88,53,29.93,29.84,8,1,16,0.22
2013-9-9,91.5,82.2,73.5,77.9,74.4,71.0,97,79,58,29.98,29.88,6,2,12,0.00
2013-9-10,90.6,81.3,76.1,79.1,75.2,70.8,95,82,59,30.02,29.93,6,2,14,0.27
2013-9-11,84.0,79.6,76.2,79.8,75.1,72.8,95,86,76,30.03,29.94,6,1,15,0.20
2013-9-12,86.1,80.3,75.5,78.3,75.5,73.1,97,86,70,30.00,29.87,3,1,8,0.01
2013-9-13,92.8,83.1,73.7,78.1,74.5,71.5,98,77,52,29.89,29.78,5,1,11,0.00
2013-9-14,94.1,84.1,75.0,78.3,74.5,69.6,97,75,46,29.96,29.81,5,1,11,0.00
2013-9-15,87.0,81.0,78.3,79.2,76.3,72.2,93,86,74,30.03,29.90,7,1,12,0.08
2013-9-16,84.6,80.5,78.1,78.6,76.1,72.8,96,87,75,30.02,29.94,7,2,14,0.15
2013-9-17,84.8,78.9,74.4,78.8,75.6,72.1,96,90,78,30.01,29.89,5,1,10,0.66
2013-9-18,88.4,79.6,74.6,78.0,75.1,71.9,96,87,67,30.00,29.89,4,1,9,0.09
2013-9-19,90.0,79.8,73.7,78.5,74.9,72.5,98,86,63,29.99,29.90,8,1,15,0.15
2013-9-20,88.8,80.6,73.2,75.0,71.8,67.7,94,76,51,29.98,29.87,5,1,13,0.05
2013-9-21,87.8,80.5,72.4,75.5,73.5,70.6,96,80,62,29.90,29.75,4,1,9,0.00
2013-9-22,94.1,83.8,75.3,77.7,75.2,71.2,96,77,48,29.85,29.74,5,1,14,0.00
2013-9-23,89.7,80.6,76.6,79.1,76.6,72.2,97,88,67,29.96,29.84,6,0,15,0.52
2013-9-24,94.8,82.9,75.2,81.1,75.4,71.2,98,80,53,29.95,29.85,8,1,16,0.02
2013-9-25,88.3,80.3,73.9,80.0,74.9,70.9,95,84,67,29.90,29.79,9,1,15,0.23
2013-9-26,89.9,80.3,75.6,80.9,76.9,74.3,97,90,69,29.85,29.78,12,2,24,0.28
2013-9-27,87.8,80.4,74.2,77.3,73.8,69.5,98,82,56,29.90,29.80,8,2,13,0.00
2013-9-28,89.7,80.1,73.3,76.6,73.2,70.4,96,81,57,29.95,29.85,7,2,14,1.70
2013-9-29,89.8,80.3,72.7,75.0,71.6,68.1,98,77,51,29.95,29.85,5,1,14,0.00
2013-9-30,90.6,80.9,71.4,74.8,71.3,69.4,95,74,52,29.98,29.88,4,2,10,0.00
2013-10-1,89.8,82.7,74.1,75.3,72.6,69.6,92,72,55,30.01,29.93,6,2,14,0.00
2013-10-2,86.0,81.9,79.8,75.7,73.7,72.5,82,76,66,30.02,29.94,6,3,14,0.00
2013-10-3,83.9,79.0,76.3,76.1,74.1,72.8,91,85,76,30.02,29.92,5,1,8,0.00
2013-10-4,89.9,82.9,73.4,75.6,72.2,69.8,96,71,55,30.04,29.96,4,2,13,0.00
2013-10-5,91.3,80.9,72.0,74.4,71.1,64.3,96,74,44,30.01,29.91,4,1,10,0.00
2013-10-6,93.3,82.5,74.5,76.4,71.9,66.5,95,73,43,29.95,29.84,4,1,9,0.00
2013-10-7,92.5,79.9,73.1,75.5,72.8,69.7,96,80,51,29.88,29.79,16,2,27,0.34
2013-10-8,89.0,81.2,75.3,79.2,74.8,71.3,98,82,63,29.92,29.83,8,2,14,0.06
2013-10-9,86.2,78.1,71.6,76.9,73.1,69.6,96,85,71,29.97,29.88,8,2,15,0.00
2013-10-10,89.5,79.4,71.8,76.2,71.9,69.4,95,79,60,29.99,29.91,4,2,14,0.00
2013-10-11,89.3,78.3,69.0,72.5,68.7,66.6,96,74,49,29.99,29.92,5,1,11,0.00
2013-10-12,87.5,76.5,67.0,70.9,68.2,65.8,98,77,52,30.01,29.93,4,1,10,0.00
2013-10-13,87.7,77.9,71.3,72.0,67.9,63.2,95,74,46,30.03,29.94,4,1,11,0.00
2013-10-14,87.6,78.0,70.7,71.3,68.9,66.1,93,75,51,30.00,29.88,4,1,11,0.00
2013-10-15,88.0,78.1,71.2,73.1,70.4,68.5,96,79,56,29.94,29.84,5,2,11,0.00
2013-10-16,87.6,77.9,70.7,73.8,69.9,67.8,94,78,55,29.93,29.86,4,1,10,0.00
2013-10-17,88.9,79.4,70.6,74.0,71.2,68.6,96,78,54,29.95,29.87,4,1,10,0.00
2013-10-18,89.3,79.7,70.6,74.6,71.9,69.4,97,79,56,29.97,29.88,5,1,11,0.00
2013-10-19,90.7,81.7,71.6,75.0,72.9,70.0,96,76,57,29.94,29.85,5,2,12,0.00
2013-10-20,93.5,81.5,76.1,78.0,75.1,69.6,95,82,47,29.94,29.85,5,1,13,0.07
2013-10-21,90.4,82.2,75.1,78.0,75.2,73.2,96,80,60,29.98,29.88,6,2,11,0.00
2013-10-22,92.1,82.4,74.1,79.1,75.4,73.2,98,81,56,29.95,29.81,5,1,13,0.02
2013-10-23,86.8,80.4,75.7,77.0,73.6,68.7,96,80,64,29.94,29.80,8,2,15,0.00
2013-10-24,80.1,76.1,72.0,70.0,66.1,62.5,83,72,63,30.07,29.91,6,2,13,0.00
2013-10-25,83.9,75.7,69.1,67.4,64.9,62.1,85,70,49,30.13,30.04,6,3,14,0.00
2013-10-26,85.0,74.5,66.7,67.4,64.4,62.6,91,73,50,30.13,30.03,4,1,10,0.00
2013-10-27,84.5,74.2,65.4,66.3,63.3,60.3,86,70,49,30.07,30.00,4,1,12,0.00
2013-10-28,85.7,75.3,65.3,68.5,64.8,58.7,96,72,42,30.12,30.03,4,1,12,0.00
2013-10-29,85.2,76.1,66.7,70.8,67.1,64.6,95,75,56,30.15,30.07,6,2,16,0.00
2013-10-30,85.7,78.7,69.7,69.0,66.9,64.9,88,68,53,30.17,30.06,7,3,15,0.00
2013-10-31,85.9,79.7,71.1,72.8,70.3,66.4,92,74,59,30.09,29.97,6,2,15,0.00
2013-11-1,88.6,80.2,72.4,75.6,72.8,69.9,96,79,58,30.00,29.86,6,2,13,0.01
2013-11-2,89.5,78.8,70.9,74.3,70.6,63.5,98,78,47,29.92,29.78,10,2,14,0.00
2013-11-3,82.3,73.6,67.9,67.2,63.1,59.9,86,70,54,30.00,29.87,10,5,21,0.00
2013-11-4,81.4,76.4,72.6,68.9,64.4,56.4,85,67,44,30.06,29.98,8,3,18,0.03
2013-11-5,82.4,78.4,73.3,72.1,68.9,65.2,91,73,60,30.06,29.99,9,5,19,0.11
2013-11-6,77.9,77.6,77.2,70.2,69.9,69.5,78,77,76,30.02,29.98,7,5,14,0.00
2013-11-12,85.2,78.7,69.2,71.6,68.5,67.1,94,72,57,30.05,29.94,4,2,0,0.00
2013-11-13,75.8,71.4,68.0,67.4,64.1,56.8,91,78,63,30.18,29.97,8,4,18,0.10
2013-11-14,77.0,72.6,69.3,62.9,58.4,54.8,71,61,53,30.21,30.11,7,4,16,0.00
2013-11-15,81.2,76.8,73.0,70.6,66.4,60.6,92,71,62,30.12,30.00,6,4,16,0.02
2013-11-16,80.8,77.8,73.6,72.6,69.1,62.0,91,75,57,30.07,29.99,6,2,13,0.14
2013-11-17,84.9,78.7,71.6,72.9,70.6,68.7,93,77,63,30.05,29.98,7,2,14,0.00
2013-11-18,86.6,76.4,69.6,73.9,70.8,68.2,97,84,63,30.01,29.89,3,1,7,0.06
2013-11-19,85.5,76.1,71.2,73.9,71.2,69.4,95,86,62,29.92,29.83,6,1,14,0.00
2013-11-20,85.2,76.4,69.7,75.0,71.8,68.8,98,86,67,30.03,29.90,4,1,8,0.00
2013-11-21,81.8,75.9,71.8,74.6,72.4,70.5,97,89,76,30.11,30.02,6,2,15,0.81
2013-11-22,82.2,77.0,72.8,72.8,71.0,69.2,96,82,70,30.13,30.04,8,3,16,0.50
2013-11-23,84.2,77.3,71.8,72.9,70.8,68.8,91,81,65,30.05,29.95,5,2,13,0.00
2013-11-24,82.0,73.5,67.9,70.9,67.7,64.0,96,83,61,30.12,29.96,8,2,14,0.06
2013-11-25,76.2,73.3,71.4,69.9,65.2,60.4,92,76,67,30.17,30.03,8,5,18,0.14
2013-11-26,84.0,77.8,71.7,75.3,72.9,69.5,94,85,70,30.02,29.81,9,4,20,0.17
2013-11-27,78.0,73.2,70.9,75.3,70.1,64.2,97,91,67,29.88,29.77,12,3,18,0.84
2013-11-28,73.0,68.7,64.8,59.2,57.4,54.6,82,68,56,30.22,30.13,3,1,14,0.00
2013-11-29,77.6,64.7,59.4,62.6,58.7,56.9,92,82,56,30.25,30.17,5,3,15,0.00
2013-11-30,73.4,71.4,69.7,69.7,66.1,62.8,95,84,73,30.16,30.09,6,2,16,0.51
2013-12-2,64.2,62.2,61.0,61.7,60.5,59.9,96,94,91,29.91,29.89,0,0,1,0.00
2013-12-3,80.8,70.1,59.4,66.0,63.0,58.4,98,80,50,29.98,29.88,3,1,9,0.00
2013-12-4,81.3,71.0,63.4,71.2,65.9,62.2,98,85,59,30.07,29.97,4,1,8,0.03
2013-12-5,82.7,73.4,63.4,71.7,68.1,62.8,99,84,66,30.14,30.05,6,2,14,0.00
2013-12-6,83.6,76.7,68.0,71.0,69.2,66.2,94,78,60,30.16,30.07,6,3,15,0.00
2013-12-7,84.6,74.2,65.2,71.9,68.3,64.3,98,83,58,30.19,30.11,5,1,11,0.05
2013-12-8,83.1,76.5,68.7,71.5,69.4,66.8,97,80,60,30.19,30.10,7,3,17,0.32
2013-12-9,84.0,77.7,69.4,71.2,68.3,62.9,93,74,51,30.17,30.08,7,3,16,0.00
2013-12-10,85.9,77.1,68.4,72.8,70.8,66.9,97,82,63,30.14,30.05,5,1,12,0.00
2013-12-11,85.3,75.6,69.5,74.9,70.9,68.6,98,86,65,30.17,30.09,5,1,10,0.00
2013-12-12,79.7,70.7,63.5,70.9,66.2,59.3,98,86,71,30.20,30.11,9,3,19,0.01
2013-12-13,78.3,72.8,62.9,69.2,63.9,58.5,90,74,61,30.17,30.07,6,3,17,0.01
2013-12-14,82.6,76.8,71.3,71.9,70.5,68.3,95,81,67,30.08,29.97,7,4,17,0.00
2013-12-15,84.8,76.4,70.9,76.2,71.9,68.1,96,87,69,30.04,29.91,12,2,19,0.00
2013-12-16,73.3,67.6,61.4,67.7,61.4,58.7,91,81,68,30.14,30.01,8,4,15,0.00
2013-12-17,78.5,66.9,58.1,65.7,59.7,56.7,95,79,56,30.16,30.07,6,2,13,0.00
2013-12-18,76.5,65.8,59.9,59.8,58.1,55.8,95,78,54,30.21,30.12,9,3,15,0.00
2013-12-19,77.9,68.2,55.5,63.1,59.2,54.3,97,75,56,30.22,30.13,6,2,14,0.00
2013-12-20,81.6,75.6,67.4,70.1,67.4,62.4,86,76,63,30.16,30.08,7,3,15,0.00
2013-12-21,82.5,78.1,75.2,73.2,71.5,69.5,87,80,70,30.13,30.04,8,4,18,0.00
2013-12-22,83.7,78.9,76.4,73.4,72.1,70.2,87,80,67,30.14,30.05,8,4,18,0.00
2013-12-23,84.3,77.8,70.0,73.7,71.8,68.5,96,82,68,30.15,30.09,6,3,15,0.00
2013-12-24,82.1,70.8,65.9,73.0,66.9,60.8,99,88,67,30.15,30.06,12,3,19,0.03
2013-12-25,76.7,72.9,68.5,67.9,66.0,63.1,89,79,70,30.15,30.07,6,2,15,0.00
2013-12-26,78.9,75.1,71.3,70.8,69.3,67.2,90,82,73,30.14,30.04,4,1,10,0.00
2013-12-27,81.3,74.4,67.3,71.8,69.4,66.4,97,85,70,30.17,30.06,5,2,13,0.01
2013-12-28,80.3,76.7,74.0,72.6,70.8,68.3,89,82,75,30.15,30.00,7,4,15,0.02
2013-12-29,82.0,77.4,74.2,74.4,73.1,71.8,96,87,76,30.01,29.91,6,2,16,0.00
2013-12-30,78.8,72.8,67.8,73.2,69.6,64.9,98,90,76,30.12,29.96,7,2,11,0.02
2013-12-31,80.1,72.7,66.7,68.7,64.5,62.2,91,76,60,30.20,30.08,6,3,14,0.00
2014-1-1,81.1,75.5,72.7,73.5,70.6,64.6,94,85,72,30.17,30.02,6,2,13,0.18
2014-1-2,86.2,75.6,65.7,71.6,68.7,65.1,99,81,53,30.02,29.85,6,2,18,0.01